Time;durP1;ratioP1;P1;durP2;ratioP2;P2;SDS_P1;SDS_P2;PMS_P1;PMS_P2;Temp;Humidity;BMP_temperature;BMP_pressure;BME280_temperature;BME280_humidity;BME280_pressure;Samples;Min_cycle;Max_cycle;Signal;HPM_P1;HPM_P2
2022/07/08 00:00:00;;;;;;;4.78;1.88;;;14.10;94.20;;;;;;4993424;28;20045;-74
2022/07/08 00:02:26;;;;;;;5.82;1.73;;;14.10;94.30;;;;;;5010368;28;20050;-74
2022/07/08 00:04:52;;;;;;;3.42;1.98;;;14.10;94.30;;;;;;5011565;28;20399;-78
2022/07/08 00:07:18;;;;;;;5.63;1.98;;;14.10;94.20;;;;;;5011449;28;20041;-74
2022/07/08 00:09:45;;;;;;;6.13;2.28;;;14.10;94.40;;;;;;5011186;28;20360;-74
2022/07/08 00:12:11;;;;;;;8.13;2.90;;;14.00;94.20;;;;;;5009846;28;20034;-74
2022/07/08 00:14:37;;;;;;;4.43;1.80;;;14.00;94.30;;;;;;5015068;28;20041;-73
2022/07/08 00:17:03;;;;;;;7.45;2.08;;;13.90;94.30;;;;;;5014823;28;20038;-77
2022/07/08 00:19:29;;;;;;;5.40;1.75;;;13.90;94.30;;;;;;4997012;28;20049;-74
2022/07/08 00:21:56;;;;;;;6.28;1.70;;;13.90;94.50;;;;;;5013881;28;20391;-74
2022/07/08 00:24:22;;;;;;;7.00;1.73;;;13.80;94.50;;;;;;5015545;28;20033;-74
2022/07/08 00:26:48;;;;;;;6.10;2.33;;;13.80;94.60;;;;;;5015378;28;20475;-74
2022/07/08 00:29:15;;;;;;;3.15;2.10;;;13.80;94.90;;;;;;5009896;28;20030;-74
2022/07/08 00:31:41;;;;;;;6.18;2.40;;;13.70;95.00;;;;;;5014094;28;20038;-76
2022/07/08 00:34:08;;;;;;;4.05;1.70;;;13.70;94.90;;;;;;5014086;28;20037;-74
2022/07/08 00:36:35;;;;;;;9.20;2.30;;;13.80;95.60;;;;;;5014875;28;20088;-74
2022/07/08 00:39:03;;;;;;;7.30;2.35;;;13.70;94.90;;;;;;5015556;28;20037;-75
2022/07/08 00:41:30;;;;;;;6.30;2.00;;;13.70;95.30;;;;;;5013914;28;20040;-74
2022/07/08 00:43:56;;;;;;;2.85;1.80;;;13.70;95.10;;;;;;5014401;28;20045;-75
2022/07/08 00:46:22;;;;;;;6.40;2.00;;;13.70;94.90;;;;;;5023652;28;20030;-74
2022/07/08 00:48:48;;;;;;;6.93;1.60;;;13.60;94.90;;;;;;5032034;28;20026;-76
2022/07/08 00:51:18;;;;;;;5.25;1.95;;;13.60;95.10;;;;;;5023484;28;20037;-74
2022/07/08 00:53:48;;;;;;;6.20;2.85;;;13.50;95.60;;;;;;5014682;28;20053;-74
2022/07/08 00:56:16;;;;;;;6.55;2.30;;;13.50;95.60;;;;;;5008199;28;20057;-75
2022/07/08 00:58:42;;;;;;;8.60;2.40;;;13.50;95.70;;;;;;5015017;28;20034;-74
2022/07/08 01:01:09;;;;;;;7.50;3.95;;;13.40;96.00;;;;;;5012144;28;20322;-75
2022/07/08 01:03:35;;;;;;;7.15;2.75;;;13.30;96.60;;;;;;5014730;28;20042;-74
2022/07/08 01:06:02;;;;;;;3.35;1.65;;;13.20;97.50;;;;;;5013978;28;20493;-74
2022/07/08 01:08:28;;;;;;;4.30;2.55;;;13.00;98.10;;;;;;5014907;28;20026;-75
2022/07/08 01:10:54;;;;;;;4.38;2.38;;;13.00;98.30;;;;;;5012443;28;20065;-74
2022/07/08 01:13:22;;;;;;;7.38;2.05;;;12.90;98.70;;;;;;5008098;28;20050;-74
2022/07/08 01:15:48;;;;;;;4.13;2.10;;;12.80;99.20;;;;;;5014101;28;20398;-75
2022/07/08 01:18:23;;;;;;;7.20;2.67;;;12.80;99.50;;;;;;5014221;28;20390;-74
2022/07/08 01:20:50;;;;;;;4.43;3.22;;;12.80;99.10;;;;;;5012851;28;20034;-76
2022/07/08 01:23:16;;;;;;;4.30;2.00;;;12.80;99.00;;;;;;5012801;28;20045;-73
2022/07/08 01:25:43;;;;;;;4.93;1.90;;;12.70;99.00;;;;;;5012596;28;20045;-74
2022/07/08 01:28:10;;;;;;;3.95;1.77;;;12.70;99.50;;;;;;5013748;28;20045;-74
2022/07/08 01:30:36;;;;;;;6.90;2.08;;;12.70;99.80;;;;;;5012810;28;20030;-74
2022/07/08 01:33:02;;;;;;;4.95;1.88;;;12.50;99.90;;;;;;4976566;28;20046;-75
2022/07/08 01:35:28;;;;;;;5.50;2.00;;;12.40;99.90;;;;;;5012994;28;20045;-74
2022/07/08 01:37:55;;;;;;;3.45;2.17;;;12.30;99.90;;;;;;4995918;28;20037;-75
2022/07/08 01:40:21;;;;;;;6.00;2.03;;;12.20;99.90;;;;;;5013453;28;20026;-75
2022/07/08 01:42:47;;;;;;;4.78;1.83;;;12.20;99.90;;;;;;5013696;28;20033;-74
2022/07/08 01:45:13;;;;;;;6.45;2.50;;;12.20;99.90;;;;;;5013643;28;20253;-74
2022/07/08 01:47:40;;;;;;;4.28;2.30;;;12.20;99.90;;;;;;5014169;28;20034;-74
2022/07/08 01:50:06;;;;;;;6.35;2.35;;;12.10;99.90;;;;;;5013227;28;20498;-76
2022/07/08 01:52:33;;;;;;;4.68;2.08;;;12.00;99.90;;;;;;5012807;28;20033;-75
2022/07/08 01:54:59;;;;;;;9.00;1.92;;;12.00;99.90;;;;;;5012984;28;20029;-74
2022/07/08 01:57:25;;;;;;;7.43;2.45;;;11.90;99.90;;;;;;5013577;28;20034;-74
2022/07/08 01:59:52;;;;;;;11.27;3.03;;;11.80;99.90;;;;;;5013535;28;20038;-79
2022/07/08 02:02:20;;;;;;;6.50;2.60;;;11.80;99.90;;;;;;5008630;28;20049;-74
2022/07/08 02:04:47;;;;;;;5.45;2.35;;;11.70;99.90;;;;;;5013178;28;20045;-74
2022/07/08 02:07:13;;;;;;;7.90;2.70;;;11.80;99.90;;;;;;5009230;28;20440;-74
2022/07/08 02:09:40;;;;;;;3.70;2.35;;;11.70;99.90;;;;;;5008200;28;20036;-74
2022/07/08 02:12:20;;;;;;;3.63;2.20;;;11.60;99.90;;;;;;5015635;28;20041;-74
2022/07/08 02:14:50;;;;;;;5.22;2.70;;;11.50;99.90;;;;;;5021656;28;20041;-74
2022/07/08 02:17:19;;;;;;;13.02;3.25;;;11.40;99.90;;;;;;5014813;28;20030;-74
2022/07/08 02:19:45;;;;;;;7.50;2.55;;;11.50;99.90;;;;;;5012705;28;20042;-74
2022/07/08 02:22:13;;;;;;;4.85;2.20;;;11.40;99.90;;;;;;5011977;28;20034;-74
2022/07/08 02:24:40;;;;;;;3.85;2.20;;;11.30;99.90;;;;;;5012874;28;20045;-74
2022/07/08 02:27:06;;;;;;;5.22;2.25;;;11.20;99.90;;;;;;5011530;28;20030;-74
2022/07/08 02:29:33;;;;;;;6.05;2.05;;;11.30;99.90;;;;;;5012966;28;20030;-73
2022/07/08 02:32:00;;;;;;;7.97;2.33;;;11.40;99.90;;;;;;5011459;28;20037;-74
2022/07/08 02:34:26;;;;;;;7.53;2.20;;;11.40;99.90;;;;;;5012897;28;20049;-74
2022/07/08 02:36:53;;;;;;;8.48;2.67;;;11.40;99.90;;;;;;5012295;28;20030;-79
2022/07/08 02:39:21;;;;;;;5.35;3.05;;;11.40;99.90;;;;;;5006927;28;20034;-74
2022/07/08 02:41:47;;;;;;;8.40;2.55;;;11.50;99.90;;;;;;5011368;28;20034;-74
2022/07/08 02:44:13;;;;;;;7.45;2.60;;;11.40;99.90;;;;;;5012694;28;20034;-74
2022/07/08 02:46:41;;;;;;;4.65;2.53;;;11.40;99.90;;;;;;5012920;28;20034;-74
2022/07/08 02:49:11;;;;;;;6.75;3.08;;;11.30;99.90;;;;;;5011986;28;20037;-74
2022/07/08 02:51:38;;;;;;;12.15;3.25;;;11.30;99.90;;;;;;5011601;28;20026;-74
2022/07/08 02:54:05;;;;;;;4.63;2.10;;;11.30;99.90;;;;;;5012324;28;20394;-74
2022/07/08 02:56:35;;;;;;;9.60;3.13;;;11.20;99.90;;;;;;5012917;28;20041;-74
2022/07/08 02:59:02;;;;;;;4.23;2.70;;;11.10;99.90;;;;;;5012526;28;20042;-74
2022/07/08 03:01:28;;;;;;;6.63;3.00;;;10.90;99.90;;;;;;5010492;28;20048;-74
2022/07/08 03:03:54;;;;;;;6.55;2.63;;;10.80;99.90;;;;;;5011476;28;20483;-74
2022/07/08 03:06:21;;;;;;;9.77;2.95;;;10.80;99.90;;;;;;5012921;28;20121;-75
2022/07/08 03:08:47;;;;;;;5.10;1.95;;;10.70;99.90;;;;;;5012714;28;20387;-74
2022/07/08 03:11:13;;;;;;;8.23;3.05;;;10.70;99.90;;;;;;5010476;28;20029;-75
2022/07/08 03:13:39;;;;;;;5.93;2.40;;;10.60;99.90;;;;;;5012211;28;20382;-75
2022/07/08 03:16:07;;;;;;;4.45;2.50;;;10.50;99.90;;;;;;4992374;28;20034;-74
2022/07/08 03:18:34;;;;;;;5.82;2.63;;;10.40;99.90;;;;;;5012372;28;20479;-74
2022/07/08 03:21:03;;;;;;;7.13;2.83;;;10.30;99.90;;;;;;5010369;28;20570;-75
2022/07/08 03:23:30;;;;;;;5.75;3.33;;;10.20;99.90;;;;;;4995019;28;20303;-74
2022/07/08 03:25:56;;;;;;;6.22;2.65;;;10.30;99.90;;;;;;5011384;28;20034;-75
2022/07/08 03:28:23;;;;;;;6.25;2.40;;;10.40;99.90;;;;;;5011891;28;20029;-75
2022/07/08 03:30:49;;;;;;;6.95;3.00;;;10.60;99.90;;;;;;5010769;28;20034;-74
2022/07/08 03:33:15;;;;;;;5.43;3.00;;;10.60;99.90;;;;;;5011694;28;20044;-74
2022/07/08 03:35:42;;;;;;;7.82;3.10;;;10.50;99.90;;;;;;5012204;28;20037;-75
2022/07/08 03:38:08;;;;;;;5.75;2.65;;;10.40;99.90;;;;;;5011720;28;20387;-74
2022/07/08 03:43:19;;;;;;;4.97;3.15;;;10.20;99.90;;;;;;5012206;28;20034;-73
2022/07/08 03:45:45;;;;;;;7.75;2.60;;;10.40;99.90;;;;;;5012061;28;20048;-73
2022/07/08 03:48:11;;;;;;;11.25;3.08;;;10.40;99.90;;;;;;5011027;28;20102;-73
2022/07/08 03:50:38;;;;;;;6.30;2.97;;;10.40;99.90;;;;;;5013310;28;20033;-73
2022/07/08 03:53:04;;;;;;;11.85;2.72;;;10.30;99.90;;;;;;4988528;28;20446;-73
2022/07/08 03:55:30;;;;;;;5.22;2.58;;;10.10;99.90;;;;;;5011301;28;20402;-75
2022/07/08 03:57:57;;;;;;;3.88;2.53;;;10.00;99.90;;;;;;5011699;28;20041;-75
2022/07/08 04:00:24;;;;;;;7.03;2.83;;;10.00;99.90;;;;;;5009637;28;20042;-75
2022/07/08 04:02:50;;;;;;;7.32;2.53;;;9.90;99.90;;;;;;5012215;28;20042;-74
2022/07/08 04:05:16;;;;;;;8.23;3.13;;;10.00;99.90;;;;;;5011595;28;20398;-74
2022/07/08 04:07:42;;;;;;;7.28;2.08;;;10.20;99.90;;;;;;5011172;28;20030;-74
2022/07/08 04:10:09;;;;;;;6.53;2.15;;;10.20;99.90;;;;;;5010163;28;20442;-75
2022/07/08 04:12:35;;;;;;;4.40;2.53;;;10.20;99.90;;;;;;5011756;28;20041;-74
2022/07/08 04:15:01;;;;;;;6.45;2.80;;;10.30;99.90;;;;;;5011073;28;20371;-74
2022/07/08 04:17:28;;;;;;;4.90;2.70;;;10.30;99.90;;;;;;5011621;28;20041;-74
2022/07/08 04:19:54;;;;;;;8.65;2.95;;;10.40;99.90;;;;;;5010370;28;20037;-75
2022/07/08 04:22:20;;;;;;;5.50;2.58;;;10.40;99.90;;;;;;5015938;28;20035;-74
2022/07/08 04:24:46;;;;;;;5.43;2.42;;;10.50;99.90;;;;;;5011945;28;20034;-74
2022/07/08 04:27:12;;;;;;;5.78;3.70;;;10.80;99.90;;;;;;4987218;28;20045;-74
2022/07/08 04:29:39;;;;;;;6.15;2.13;;;11.80;99.90;;;;;;5011952;28;20030;-74
2022/07/08 04:32:05;;;;;;;6.05;2.35;;;12.60;99.90;;;;;;5010203;28;20034;-74
2022/07/08 04:34:31;;;;;;;3.28;2.65;;;13.40;99.90;;;;;;5011461;28;20030;-77
2022/07/08 04:36:58;;;;;;;3.65;1.83;;;14.30;99.90;;;;;;5010614;28;20470;-77
2022/07/08 04:39:25;;;;;;;4.20;1.13;;;15.00;98.70;;;;;;5011121;28;20030;-78
2022/07/08 04:41:51;;;;;;;3.63;1.63;;;16.50;93.80;;;;;;5010706;28;20391;-79
2022/07/08 04:44:18;;;;;;;3.67;1.35;;;17.00;90.60;;;;;;5011158;28;20038;-77
2022/07/08 04:46:45;;;;;;;6.18;1.33;;;16.90;89.70;;;;;;5011163;28;20030;-77
2022/07/08 04:49:11;;;;;;;4.70;1.35;;;17.00;88.70;;;;;;4992889;28;20475;-75
2022/07/08 04:51:37;;;;;;;3.88;1.17;;;17.50;89.80;;;;;;5010235;28;20034;-76
2022/07/08 04:54:03;;;;;;;3.13;1.20;;;18.90;80.80;;;;;;5011203;28;20034;-75
2022/07/08 04:56:29;;;;;;;2.97;1.42;;;20.10;74.60;;;;;;5011328;28;20038;-75
2022/07/08 04:58:56;;;;;;;3.78;1.50;;;20.70;69.90;;;;;;5012230;28;20490;-77
2022/07/08 05:01:22;;;;;;;5.18;1.77;;;21.20;67.30;;;;;;5013779;28;20048;-75
2022/07/08 05:03:48;;;;;;;3.75;1.20;;;21.50;66.70;;;;;;5014469;28;20045;-75
2022/07/08 05:06:14;;;;;;;6.90;1.35;;;21.40;63.70;;;;;;5014592;28;20037;-76
2022/07/08 05:08:41;;;;;;;2.75;0.93;;;21.10;65.90;;;;;;5015352;28;20030;-76
2022/07/08 05:11:07;;;;;;;4.25;1.33;;;21.70;64.40;;;;;;5012737;28;20034;-76
2022/07/08 05:13:33;;;;;;;6.70;1.15;;;21.50;62.60;;;;;;5014690;28;20029;-75
2022/07/08 05:15:59;;;;;;;4.57;1.20;;;20.60;65.10;;;;;;5018733;28;20033;-76
2022/07/08 05:18:25;;;;;;;3.10;1.10;;;21.20;65.20;;;;;;5038236;28;20026;-79
2022/07/08 05:20:51;;;;;;;7.00;1.10;;;22.40;62.80;;;;;;5036993;28;20014;-76
2022/07/08 05:23:18;;;;;;;4.57;1.08;;;22.40;60.70;;;;;;5015041;28;20049;-77
2022/07/08 05:25:44;;;;;;;7.72;1.23;;;21.80;60.60;;;;;;5014968;28;20041;-77
2022/07/08 05:28:10;;;;;;;6.80;1.20;;;20.90;63.40;;;;;;5014556;28;20056;-77
2022/07/08 05:30:36;;;;;;;4.50;1.00;;;21.10;62.90;;;;;;5013996;28;20030;-78
2022/07/08 05:33:02;;;;;;;5.30;1.10;;;20.60;64.30;;;;;;5014320;28;20038;-76
2022/07/08 05:35:29;;;;;;;4.80;1.52;;;19.00;67.90;;;;;;4997961;28;20034;-75
2022/07/08 05:37:55;;;;;;;3.95;0.82;;;19.30;67.70;;;;;;5013810;28;20030;-80
2022/07/08 05:40:21;;;;;;;3.15;0.70;;;19.70;67.00;;;;;;4995972;28;20033;-76
2022/07/08 05:42:48;;;;;;;6.05;1.80;;;19.60;67.90;;;;;;5008047;28;20034;-76
2022/07/08 05:45:14;;;;;;;3.72;1.00;;;20.30;65.40;;;;;;5013921;28;20037;-76
2022/07/08 05:47:40;;;;;;;6.50;0.98;;;21.40;62.50;;;;;;5013459;28;20053;-75
2022/07/08 05:50:07;;;;;;;4.72;1.40;;;21.10;62.90;;;;;;5012089;28;20038;-76
2022/07/08 05:52:33;;;;;;;5.93;1.10;;;20.40;64.50;;;;;;5013613;28;20029;-75
2022/07/08 05:54:59;;;;;;;3.58;0.82;;;20.70;64.00;;;;;;5013034;28;20034;-76
2022/07/08 05:57:26;;;;;;;6.35;1.02;;;20.20;64.10;;;;;;5013896;28;20467;-76
2022/07/08 05:59:52;;;;;;;4.57;1.00;;;19.70;65.70;;;;;;4995294;28;20486;-75
2022/07/08 06:02:18;;;;;;;3.72;0.90;;;20.50;65.30;;;;;;5016578;28;20046;-74
2022/07/08 06:04:44;;;;;;;3.80;0.90;;;20.90;62.40;;;;;;5013908;28;20049;-75
2022/07/08 06:07:11;;;;;;;4.80;1.00;;;20.90;64.20;;;;;;5013110;28;20464;-75
2022/07/08 06:09:37;;;;;;;4.25;0.85;;;20.70;64.20;;;;;;5014009;28;20037;-76
2022/07/08 06:12:04;;;;;;;4.63;1.02;;;20.20;64.90;;;;;;5011418;28;20479;-75
2022/07/08 06:14:31;;;;;;;4.70;1.13;;;19.50;66.80;;;;;;5013374;28;20471;-75
2022/07/08 06:16:57;;;;;;;4.32;1.00;;;19.30;67.40;;;;;;5014482;28;20026;-76
2022/07/08 06:19:24;;;;;;;7.40;1.17;;;19.90;67.10;;;;;;5017991;28;20041;-75
2022/07/08 06:21:50;;;;;;;2.65;0.88;;;20.30;66.20;;;;;;5011047;28;20033;-74
2022/07/08 06:24:16;;;;;;;5.45;1.15;;;19.80;66.70;;;;;;5012800;28;20053;-75
2022/07/08 06:26:46;;;;;;;1.77;0.85;;;20.20;67.60;;;;;;5012857;28;20049;-74
2022/07/08 06:29:13;;;;;;;8.00;1.25;;;20.20;65.30;;;;;;5012689;28;20030;-75
2022/07/08 06:31:39;;;;;;;5.35;1.33;;;19.60;66.00;;;;;;5011149;28;20049;-75
2022/07/08 06:34:05;;;;;;;3.10;1.10;;;19.40;66.50;;;;;;5012606;28;20053;-73
2022/07/08 06:36:32;;;;;;;2.45;0.60;;;19.40;67.20;;;;;;5012929;28;20033;-74
2022/07/08 06:38:59;;;;;;;2.45;0.82;;;18.60;69.40;;;;;;5012811;28;20097;-74
2022/07/08 06:41:25;;;;;;;4.85;1.17;;;18.10;70.90;;;;;;5011037;28;20029;-74
2022/07/08 06:43:51;;;;;;;4.13;0.70;;;18.60;69.60;;;;;;5012825;28;20041;-74
2022/07/08 06:46:17;;;;;;;2.97;1.08;;;18.30;71.10;;;;;;5015775;28;20026;-73
2022/07/08 06:48:44;;;;;;;6.80;1.15;;;18.10;71.40;;;;;;5017256;28;20038;-73
2022/07/08 06:51:11;;;;;;;119.75;13.68;;;18.70;71.40;;;;;;5013047;28;20030;-74
2022/07/08 06:56:23;;;;;;;8.50;1.35;;;19.20;67.10;;;;;;5013160;28;20505;-74
2022/07/08 06:58:49;;;;;;;3.47;0.88;;;19.40;65.70;;;;;;5012618;28;20036;-74
2022/07/08 07:01:16;;;;;;;2.05;0.70;;;19.50;65.80;;;;;;5010508;28;20277;-73
2022/07/08 07:03:42;;;;;;;3.47;0.77;;;19.40;65.70;;;;;;4989976;28;20054;-74
2022/07/08 07:06:08;;;;;;;3.50;0.98;;;19.70;64.20;;;;;;5011369;28;20038;-74
2022/07/08 07:08:34;;;;;;;4.30;0.90;;;19.70;64.00;;;;;;5011983;28;20030;-76
2022/07/08 07:11:01;;;;;;;4.25;0.63;;;19.80;61.60;;;;;;5010323;28;20041;-74
2022/07/08 07:13:27;;;;;;;3.22;1.35;;;20.40;62.80;;;;;;5012307;28;20034;-73
2022/07/08 07:15:53;;;;;;;4.63;0.57;;;20.30;60.50;;;;;;5011705;28;20041;-74
2022/07/08 07:18:19;;;;;;;3.22;0.60;;;19.30;62.70;;;;;;5011348;28;20414;-73
2022/07/08 07:20:45;;;;;;;13.57;1.70;;;18.40;65.80;;;;;;5011441;28;20399;-73
2022/07/08 07:23:12;;;;;;;4.53;0.80;;;18.00;65.50;;;;;;5010706;28;20044;-73
2022/07/08 07:25:38;;;;;;;2.22;0.50;;;18.50;65.30;;;;;;5012393;28;20041;-72
2022/07/08 07:28:04;;;;;;;4.47;0.73;;;18.60;65.20;;;;;;5011344;28;20046;-73
2022/07/08 07:30:30;;;;;;;8.88;1.17;;;18.30;64.90;;;;;;5010648;28;20046;-74
2022/07/08 07:32:56;;;;;;;5.47;1.02;;;18.10;66.70;;;;;;5012152;28;20042;-71
2022/07/08 07:35:23;;;;;;;4.47;0.95;;;18.20;66.50;;;;;;5011941;28;20034;-73
2022/07/08 07:37:49;;;;;;;5.10;0.90;;;17.80;66.30;;;;;;5011253;28;20046;-73
2022/07/08 07:40:15;;;;;;;5.32;0.90;;;17.80;67.20;;;;;;5009846;28;20026;-75
2022/07/08 07:42:41;;;;;;;3.13;0.60;;;17.80;67.70;;;;;;5012538;28;20041;-74
2022/07/08 07:45:08;;;;;;;4.57;0.50;;;17.50;68.70;;;;;;5011916;28;20465;-74
2022/07/08 07:47:34;;;;;;;3.35;0.70;;;17.60;68.20;;;;;;5011967;28;20030;-73
2022/07/08 07:50:00;;;;;;;4.30;0.93;;;17.50;68.20;;;;;;5009491;28;20038;-74
2022/07/08 07:52:27;;;;;;;2.60;0.60;;;18.70;66.50;;;;;;5012157;28;20088;-73
2022/07/08 07:54:53;;;;;;;4.57;1.55;;;20.10;62.20;;;;;;5003394;28;20045;-74
2022/07/08 07:57:19;;;;;;;17.23;1.48;;;20.10;60.20;;;;;;5011784;28;20029;-73
2022/07/08 07:59:45;;;;;;;3.28;0.82;;;19.40;60.90;;;;;;5011173;28;20236;-75
2022/07/08 08:02:11;;;;;;;5.65;1.15;;;18.90;62.20;;;;;;5010867;28;20049;-75
2022/07/08 08:04:38;;;;;;;6.60;1.05;;;18.50;64.00;;;;;;5012661;28;20046;-76
2022/07/08 08:07:04;;;;;;;3.70;0.70;;;18.40;63.30;;;;;;5011821;28;20053;-75
2022/07/08 08:09:30;;;;;;;1.48;1.00;;;17.80;65.00;;;;;;5017518;28;20061;-75
2022/07/08 08:11:57;;;;;;;3.33;1.27;;;17.90;67.10;;;;;;5020043;28;20489;-75
2022/07/08 08:14:23;;;;;;;4.05;0.50;;;18.40;64.60;;;;;;5019715;28;20034;-74
2022/07/08 08:16:49;;;;;;;3.53;0.63;;;18.20;65.00;;;;;;4998099;28;20034;-74
2022/07/08 08:19:16;;;;;;;6.65;1.13;;;18.20;66.70;;;;;;5020226;28;20037;-75
2022/07/08 08:21:42;;;;;;;2.88;0.50;;;18.50;66.10;;;;;;5012537;28;20030;-74
2022/07/08 08:24:08;;;;;;;1.92;0.65;;;18.70;64.60;;;;;;5016193;28;20053;-74
2022/07/08 08:26:34;;;;;;;2.67;0.80;;;18.90;63.80;;;;;;5010707;28;20029;-74
2022/07/08 08:29:01;;;;;;;2.13;0.60;;;19.60;63.70;;;;;;5011023;28;20037;-76
2022/07/08 08:31:27;;;;;;;4.40;0.50;;;19.70;61.70;;;;;;5008619;28;20034;-74
2022/07/08 08:33:53;;;;;;;6.47;0.90;;;19.20;62.60;;;;;;5015056;28;20037;-74
2022/07/08 08:36:19;;;;;;;5.45;0.80;;;18.90;63.70;;;;;;5024906;28;20032;-73
2022/07/08 08:38:46;;;;;;;4.13;1.15;;;18.80;63.40;;;;;;5016073;28;20030;-73
2022/07/08 08:41:13;;;;;;;5.38;0.70;;;19.60;62.30;;;;;;5012986;28;20037;-74
2022/07/08 08:43:39;;;;;;;3.83;0.75;;;20.30;59.80;;;;;;5024175;28;20398;-74
2022/07/08 08:46:05;;;;;;;7.13;0.73;;;20.10;59.00;;;;;;5023206;28;20069;-75
2022/07/08 08:48:37;;;;;;;7.22;1.27;;;20.10;59.30;;;;;;5022724;28;20025;-74
2022/07/08 08:51:07;;;;;;;7.15;1.20;;;19.80;60.30;;;;;;5018334;28;20037;-74
2022/07/08 08:53:42;;;;;;;6.47;0.70;;;19.30;60.00;;;;;;5015177;28;20058;-77
2022/07/08 08:56:12;;;;;;;4.70;0.75;;;19.40;60.00;;;;;;5015384;28;20037;-73
2022/07/08 08:58:40;;;;;;;5.25;1.25;;;20.10;58.40;;;;;;5014121;28;20029;-78
2022/07/08 09:01:07;;;;;;;2.60;0.77;;;20.10;57.50;;;;;;5019001;28;20056;-73
2022/07/08 09:03:35;;;;;;;2.35;0.57;;;20.10;57.30;;;;;;5015863;28;20132;-74
2022/07/08 09:06:02;;;;;;;3.03;0.60;;;20.40;57.00;;;;;;5014026;28;20048;-75
2022/07/08 09:08:29;;;;;;;5.63;0.68;;;20.40;58.10;;;;;;4996653;28;20037;-74
2022/07/08 09:10:55;;;;;;;3.63;0.98;;;20.70;56.20;;;;;;5012812;28;20044;-74
2022/07/08 09:13:25;;;;;;;2.00;0.40;;;20.70;56.60;;;;;;5013717;28;20030;-73
2022/07/08 09:15:54;;;;;;;5.70;0.90;;;20.20;56.90;;;;;;5013876;28;20056;-72
2022/07/08 09:18:26;;;;;;;3.40;0.57;;;20.10;57.30;;;;;;5013810;28;20061;-74
2022/07/08 09:20:53;;;;;;;6.30;1.02;;;20.20;57.00;;;;;;5017902;28;20045;-74
2022/07/08 09:23:20;;;;;;;3.38;0.77;;;20.30;57.30;;;;;;5017181;28;20204;-74
2022/07/08 09:25:52;;;;;;;4.00;1.00;;;21.00;56.30;;;;;;5014413;28;20038;-74
2022/07/08 09:28:44;;;;;;;3.85;0.90;;;20.80;56.60;;;;;;5013612;28;20022;-75
2022/07/08 09:31:12;;;;;;;2.78;0.50;;;20.60;55.50;;;;;;5007666;28;20057;-74
2022/07/08 09:33:40;;;;;;;2.80;0.73;;;20.60;55.60;;;;;;5014648;28;20038;-73
2022/07/08 09:36:08;;;;;;;2.05;0.65;;;21.10;54.40;;;;;;5013563;28;20626;-74
2022/07/08 09:38:37;;;;;;;4.07;0.75;;;21.40;54.70;;;;;;5014094;28;20036;-73
2022/07/08 09:41:05;;;;;;;2.40;0.43;;;20.70;55.30;;;;;;5012335;28;20029;-75
2022/07/08 09:43:33;;;;;;;4.10;0.70;;;20.50;54.70;;;;;;5017313;28;20451;-75
2022/07/08 09:46:05;;;;;;;3.03;0.70;;;20.50;55.80;;;;;;5013328;28;20029;-78
2022/07/08 09:48:31;;;;;;;3.55;0.70;;;20.10;56.60;;;;;;5027858;28;20033;-75
2022/07/08 09:51:09;;;;;;;3.97;0.68;;;19.30;57.90;;;;;;5016005;28;20034;-73
2022/07/08 09:53:40;;;;;;;3.80;1.05;;;19.60;59.70;;;;;;5022778;28;20037;-74
2022/07/08 09:56:07;;;;;;;3.95;0.93;;;20.40;56.00;;;;;;5012767;28;20479;-75
2022/07/08 09:58:34;;;;;;;3.03;0.73;;;20.80;55.80;;;;;;5013647;28;20040;-74
2022/07/08 10:01:01;;;;;;;3.55;1.00;;;21.10;55.40;;;;;;5005886;28;20487;-78
2022/07/08 10:03:28;;;;;;;5.55;0.80;;;22.50;53.90;;;;;;5013007;28;20506;-73
2022/07/08 10:05:54;;;;;;;8.35;1.40;;;21.80;53.40;;;;;;5013229;28;20033;-74
2022/07/08 10:08:23;;;;;;;1.95;0.90;;;21.00;55.10;;;;;;5012620;28;20022;-74
2022/07/08 10:10:49;;;;;;;2.40;0.88;;;21.20;55.60;;;;;;5014361;28;20033;-74
2022/07/08 10:13:19;;;;;;;6.63;1.05;;;22.70;55.10;;;;;;5013076;28;20049;-75
2022/07/08 10:15:48;;;;;;;4.13;0.70;;;22.70;52.30;;;;;;5012693;28;20034;-74
2022/07/08 10:18:36;;;;;;;7.47;1.27;;;22.60;53.20;;;;;;5012671;28;20030;-75
2022/07/08 10:21:05;;;;;;;5.22;0.60;;;21.50;54.20;;;;;;5015556;28;20030;-79
2022/07/08 10:23:44;;;;;;;3.80;1.02;;;21.40;54.90;;;;;;5019338;28;20037;-75
2022/07/08 10:26:11;;;;;;;4.60;0.75;;;20.70;54.60;;;;;;5018767;28;20026;-75
2022/07/08 10:28:39;;;;;;;4.78;0.68;;;21.30;54.00;;;;;;5020060;28;20029;-76
2022/07/08 10:31:25;;;;;;;3.70;0.75;;;21.20;53.10;;;;;;5010079;28;20042;-74
2022/07/08 10:33:58;;;;;;;5.10;1.02;;;20.60;53.40;;;;;;5006751;28;20042;-73
2022/07/08 10:36:24;;;;;;;3.33;0.82;;;20.60;53.90;;;;;;5011259;28;20482;-74
2022/07/08 10:38:50;;;;;;;2.22;0.80;;;20.60;54.30;;;;;;5022941;28;20040;-75
2022/07/08 10:41:21;;;;;;;5.05;0.70;;;20.20;54.90;;;;;;5002640;28;20054;-75
2022/07/08 10:43:52;;;;;;;5.47;1.10;;;20.60;56.30;;;;;;5016710;28;20503;-76
2022/07/08 10:46:20;;;;;;;2.50;1.05;;;21.00;55.60;;;;;;5007028;28;20033;-75
2022/07/08 10:48:51;;;;;;;3.10;0.73;;;20.90;53.90;;;;;;5013789;28;20036;-74
2022/07/08 10:51:18;;;;;;;4.80;1.20;;;21.00;53.50;;;;;;5021159;28;20033;-73
2022/07/08 10:53:58;;;;;;;2.22;0.40;;;20.60;53.90;;;;;;5009443;28;20106;-74
2022/07/08 10:57:01;;;;;;;2.55;0.60;;;20.70;53.20;;;;;;5016292;28;20030;-74
2022/07/08 10:59:31;;;;;;;3.33;0.60;;;20.40;53.80;;;;;;5022667;28;20040;-74
2022/07/08 11:02:07;;;;;;;3.05;1.02;;;20.70;53.70;;;;;;5013399;28;20049;-74
2022/07/08 11:04:33;;;;;;;2.53;0.70;;;21.00;53.50;;;;;;5017375;28;20709;-75
2022/07/08 11:07:20;;;;;;;7.78;1.17;;;21.10;53.90;;;;;;5021151;28;20053;-78
2022/07/08 11:10:07;;;;;;;4.75;0.90;;;20.90;53.30;;;;;;5017815;28;20037;-74
2022/07/08 11:12:36;;;;;;;4.65;0.88;;;21.00;53.00;;;;;;5013885;28;20040;-73
2022/07/08 11:15:06;;;;;;;4.28;0.73;;;21.10;52.90;;;;;;5014732;28;20040;-77
2022/07/08 11:17:35;;;;;;;2.75;0.52;;;21.20;54.60;;;;;;5012248;28;20040;-74
2022/07/08 11:20:08;;;;;;;6.45;0.57;;;21.50;52.60;;;;;;5012026;28;20034;-76
2022/07/08 11:22:36;;;;;;;2.92;1.15;;;21.60;53.80;;;;;;5010752;28;20034;-74
2022/07/08 11:25:03;;;;;;;3.35;0.50;;;21.50;52.60;;;;;;5008571;28;20391;-77
2022/07/08 11:27:33;;;;;;;6.50;1.10;;;21.00;53.70;;;;;;5010168;28;20034;-74
2022/07/08 11:30:09;;;;;;;2.08;0.60;;;21.20;53.00;;;;;;5008869;28;20034;-74
2022/07/08 11:32:36;;;;;;;4.70;1.13;;;21.20;53.20;;;;;;5012042;28;20045;-74
2022/07/08 11:35:03;;;;;;;3.33;0.93;;;21.10;54.10;;;;;;5009080;28;20041;-77
2022/07/08 11:37:32;;;;;;;2.60;0.90;;;21.30;53.80;;;;;;5007160;28;20034;-73
2022/07/08 11:39:59;;;;;;;2.95;0.70;;;21.30;54.30;;;;;;5011278;28;20050;-74
2022/07/08 11:42:26;;;;;;;1.00;0.50;;;21.50;53.80;;;;;;5010469;28;20025;-75
2022/07/08 11:44:52;;;;;;;3.80;0.80;;;21.60;52.60;;;;;;5014562;28;20038;-74
2022/07/08 11:47:20;;;;;;;3.75;0.60;;;21.50;53.50;;;;;;4994094;28;20045;-72
2022/07/08 11:49:48;;;;;;;4.35;0.60;;;21.70;52.10;;;;;;5012046;28;20030;-73
2022/07/08 11:52:18;;;;;;;3.10;0.82;;;21.40;52.00;;;;;;5009169;28;20038;-73
2022/07/08 11:54:48;;;;;;;2.00;0.50;;;21.10;52.70;;;;;;5012231;28;20065;-73
2022/07/08 11:57:16;;;;;;;2.60;0.70;;;20.90;53.40;;;;;;5011046;28;20041;-73
2022/07/08 11:59:47;;;;;;;4.88;0.93;;;21.40;54.00;;;;;;5011812;28;20030;-73
2022/07/08 12:02:18;;;;;;;4.57;1.00;;;21.60;54.00;;;;;;5009399;28;20053;-75
2022/07/08 12:04:48;;;;;;;4.22;1.17;;;21.90;53.40;;;;;;4994004;28;20046;-73
2022/07/08 12:07:21;;;;;;;3.70;0.85;;;22.00;54.30;;;;;;5010947;28;20038;-73
2022/07/08 12:10:03;;;;;;;4.60;0.90;;;22.10;53.10;;;;;;5014787;28;20033;-73
2022/07/08 12:12:31;;;;;;;4.10;0.73;;;21.90;53.60;;;;;;5014643;28;20478;-73
2022/07/08 12:15:14;;;;;;;4.65;1.00;;;21.90;53.20;;;;;;5015156;28;20041;-73
2022/07/08 12:17:40;;;;;;;4.90;0.85;;;21.80;54.20;;;;;;5015101;28;20033;-74
2022/07/08 12:20:07;;;;;;;7.47;1.17;;;22.20;53.30;;;;;;4997233;28;20399;-73
2022/07/08 12:22:46;;;;;;;9.68;1.48;;;22.20;53.20;;;;;;5014718;28;20022;-74
2022/07/08 12:25:17;;;;;;;4.20;0.90;;;22.50;52.60;;;;;;5013246;28;20057;-73
2022/07/08 12:27:44;;;;;;;2.80;0.68;;;22.50;52.60;;;;;;5015026;28;20030;-76
2022/07/08 12:30:10;;;;;;;7.35;1.77;;;22.60;51.90;;;;;;4996371;28;20042;-75
2022/07/08 12:32:45;;;;;;;3.72;0.93;;;22.60;52.60;;;;;;5014801;28;20045;-74
2022/07/08 12:35:12;;;;;;;5.63;0.88;;;22.30;53.00;;;;;;5015230;28;20026;-74
2022/07/08 12:37:39;;;;;;;1.95;0.88;;;22.20;53.50;;;;;;5018249;28;20061;-76
2022/07/08 12:40:19;;;;;;;5.32;1.33;;;22.50;54.30;;;;;;5017670;28;20502;-79
2022/07/08 12:43:03;;;;;;;6.57;2.33;;;22.80;51.80;;;;;;5020285;28;20041;-78
2022/07/08 12:45:29;;;;;;;2.83;1.02;;;22.40;51.40;;;;;;5020429;28;20372;-82
2022/07/08 12:47:57;;;;;;;2.78;0.90;;;22.20;52.50;;;;;;5019529;28;20382;-79
2022/07/08 12:50:23;;;;;;;8.38;0.95;;;22.20;52.90;;;;;;5012014;28;20018;-78
2022/07/08 12:52:50;;;;;;;4.00;1.02;;;22.60;51.00;;;;;;5014488;28;20034;-79